sensor_id;sensor_type;location;lat;lon;timestamp;P1;durP1;ratioP1;P2;durP2;ratioP2
44110;SDS011;29774;52.664;5.074;2023-03-01T00:01:16;11.38;;;8.70;;
44110;SDS011;29774;52.664;5.074;2023-03-01T00:03:43;10.68;;;8.18;;
44110;SDS011;29774;52.664;5.074;2023-03-01T00:06:09;9.93;;;7.07;;
44110;SDS011;29774;52.664;5.074;2023-03-01T00:08:34;9.43;;;7.13;;
44110;SDS011;29774;52.664;5.074;2023-03-01T00:11:04;8.98;;;6.72;;
44110;SDS011;29774;52.664;5.074;2023-03-01T00:13:41;8.13;;;6.60;;
44110;SDS011;29774;52.664;5.074;2023-03-01T00:16:13;9.93;;;8.10;;
44110;SDS011;29774;52.664;5.074;2023-03-01T00:18:40;9.35;;;7.90;;
44110;SDS011;29774;52.664;5.074;2023-03-01T00:21:06;10.13;;;7.65;;
44110;SDS011;29774;52.664;5.074;2023-03-01T00:23:33;11.68;;;8.10;;
44110;SDS011;29774;52.664;5.074;2023-03-01T00:25:59;8.95;;;7.20;;
44110;SDS011;29774;52.664;5.074;2023-03-01T00:28:25;10.20;;;7.65;;
44110;SDS011;29774;52.664;5.074;2023-03-01T00:30:50;11.32;;;7.78;;
44110;SDS011;29774;52.664;5.074;2023-03-01T00:33:16;9.43;;;7.50;;
44110;SDS011;29774;52.664;5.074;2023-03-01T00:35:42;10.27;;;7.25;;
44110;SDS011;29774;52.664;5.074;2023-03-01T00:38:07;9.45;;;7.50;;
44110;SDS011;29774;52.664;5.074;2023-03-01T00:40:34;9.02;;;6.82;;
44110;SDS011;29774;52.664;5.074;2023-03-01T00:43:00;7.90;;;6.80;;
44110;SDS011;29774;52.664;5.074;2023-03-01T00:45:26;9.55;;;7.18;;
44110;SDS011;29774;52.664;5.074;2023-03-01T00:47:52;8.88;;;7.68;;
44110;SDS011;29774;52.664;5.074;2023-03-01T00:50:18;8.35;;;7.10;;
44110;SDS011;29774;52.664;5.074;2023-03-01T00:52:44;11.80;;;8.35;;
44110;SDS011;29774;52.664;5.074;2023-03-01T00:55:10;9.57;;;7.50;;
44110;SDS011;29774;52.664;5.074;2023-03-01T00:57:36;9.38;;;7.13;;
44110;SDS011;29774;52.664;5.074;2023-03-01T01:00:03;9.20;;;7.72;;
44110;SDS011;29774;52.664;5.074;2023-03-01T01:02:32;9.98;;;7.85;;
44110;SDS011;29774;52.664;5.074;2023-03-01T01:04:58;10.65;;;7.50;;
44110;SDS011;29774;52.664;5.074;2023-03-01T01:07:24;10.20;;;7.03;;
44110;SDS011;29774;52.664;5.074;2023-03-01T01:09:49;11.43;;;7.93;;
44110;SDS011;29774;52.664;5.074;2023-03-01T01:12:15;10.10;;;7.53;;
44110;SDS011;29774;52.664;5.074;2023-03-01T01:14:41;12.02;;;7.88;;
44110;SDS011;29774;52.664;5.074;2023-03-01T01:17:06;12.52;;;8.18;;
44110;SDS011;29774;52.664;5.074;2023-03-01T01:19:32;13.55;;;8.43;;
44110;SDS011;29774;52.664;5.074;2023-03-01T01:21:58;10.18;;;8.20;;
44110;SDS011;29774;52.664;5.074;2023-03-01T01:24:23;9.80;;;7.93;;
44110;SDS011;29774;52.664;5.074;2023-03-01T01:26:49;9.55;;;7.70;;
44110;SDS011;29774;52.664;5.074;2023-03-01T01:29:15;11.85;;;8.07;;
44110;SDS011;29774;52.664;5.074;2023-03-01T01:31:41;10.23;;;8.02;;
44110;SDS011;29774;52.664;5.074;2023-03-01T01:34:08;9.00;;;7.97;;
44110;SDS011;29774;52.664;5.074;2023-03-01T01:36:41;10.13;;;7.95;;
44110;SDS011;29774;52.664;5.074;2023-03-01T01:39:07;11.32;;;8.80;;
44110;SDS011;29774;52.664;5.074;2023-03-01T01:41:36;9.57;;;8.27;;
44110;SDS011;29774;52.664;5.074;2023-03-01T01:44:12;12.68;;;8.13;;
44110;SDS011;29774;52.664;5.074;2023-03-01T01:46:58;12.55;;;8.98;;
44110;SDS011;29774;52.664;5.074;2023-03-01T01:52:11;10.77;;;8.13;;
44110;SDS011;29774;52.664;5.074;2023-03-01T01:54:50;10.55;;;8.13;;
44110;SDS011;29774;52.664;5.074;2023-03-01T01:57:18;11.10;;;8.23;;
44110;SDS011;29774;52.664;5.074;2023-03-01T01:59:48;11.38;;;8.40;;
44110;SDS011;29774;52.664;5.074;2023-03-01T02:02:17;12.43;;;9.13;;
44110;SDS011;29774;52.664;5.074;2023-03-01T02:04:43;11.10;;;8.73;;
44110;SDS011;29774;52.664;5.074;2023-03-01T02:07:17;10.40;;;8.55;;
44110;SDS011;29774;52.664;5.074;2023-03-01T02:09:48;11.05;;;8.73;;
44110;SDS011;29774;52.664;5.074;2023-03-01T02:12:16;12.27;;;8.98;;
44110;SDS011;29774;52.664;5.074;2023-03-01T02:14:45;11.25;;;8.63;;
44110;SDS011;29774;52.664;5.074;2023-03-01T02:17:11;13.85;;;8.50;;
44110;SDS011;29774;52.664;5.074;2023-03-01T02:19:42;12.13;;;9.15;;
44110;SDS011;29774;52.664;5.074;2023-03-01T02:22:36;10.77;;;7.93;;
44110;SDS011;29774;52.664;5.074;2023-03-01T02:27:51;10.65;;;8.02;;
44110;SDS011;29774;52.664;5.074;2023-03-01T02:30:30;10.90;;;8.60;;
44110;SDS011;29774;52.664;5.074;2023-03-01T02:32:57;11.55;;;8.40;;
44110;SDS011;29774;52.664;5.074;2023-03-01T02:35:33;9.25;;;7.38;;
44110;SDS011;29774;52.664;5.074;2023-03-01T02:38:02;11.32;;;7.93;;
44110;SDS011;29774;52.664;5.074;2023-03-01T02:40:31;10.85;;;8.05;;
44110;SDS011;29774;52.664;5.074;2023-03-01T02:42:59;10.32;;;8.13;;
44110;SDS011;29774;52.664;5.074;2023-03-01T02:45:25;11.25;;;7.80;;
44110;SDS011;29774;52.664;5.074;2023-03-01T02:47:55;12.00;;;9.00;;
44110;SDS011;29774;52.664;5.074;2023-03-01T02:52:56;14.38;;;10.18;;
44110;SDS011;29774;52.664;5.074;2023-03-01T02:55:29;11.95;;;9.02;;
44110;SDS011;29774;52.664;5.074;2023-03-01T02:57:55;11.00;;;8.93;;
44110;SDS011;29774;52.664;5.074;2023-03-01T03:00:26;14.10;;;9.13;;
44110;SDS011;29774;52.664;5.074;2023-03-01T03:02:59;9.95;;;8.25;;
44110;SDS011;29774;52.664;5.074;2023-03-01T03:05:26;11.38;;;8.32;;
44110;SDS011;29774;52.664;5.074;2023-03-01T03:07:53;9.23;;;7.80;;
44110;SDS011;29774;52.664;5.074;2023-03-01T03:10:21;11.25;;;7.70;;
44110;SDS011;29774;52.664;5.074;2023-03-01T03:12:59;10.27;;;7.60;;
44110;SDS011;29774;52.664;5.074;2023-03-01T03:15:27;10.68;;;7.90;;
44110;SDS011;29774;52.664;5.074;2023-03-01T03:17:54;14.52;;;7.72;;
44110;SDS011;29774;52.664;5.074;2023-03-01T03:20:22;28.33;;;10.65;;
44110;SDS011;29774;52.664;5.074;2023-03-01T03:22:50;24.27;;;9.68;;
44110;SDS011;29774;52.664;5.074;2023-03-01T03:25:18;51.63;;;12.38;;
44110;SDS011;29774;52.664;5.074;2023-03-01T03:27:44;25.33;;;9.73;;
44110;SDS011;29774;52.664;5.074;2023-03-01T03:30:13;36.38;;;9.50;;
44110;SDS011;29774;52.664;5.074;2023-03-01T03:32:44;21.38;;;9.32;;
44110;SDS011;29774;52.664;5.074;2023-03-01T03:35:18;18.58;;;8.10;;
44110;SDS011;29774;52.664;5.074;2023-03-01T03:37:49;43.85;;;9.57;;
44110;SDS011;29774;52.664;5.074;2023-03-01T03:40:29;31.80;;;8.77;;
44110;SDS011;29774;52.664;5.074;2023-03-01T03:42:57;32.50;;;10.82;;
44110;SDS011;29774;52.664;5.074;2023-03-01T03:45:22;33.17;;;10.35;;
44110;SDS011;29774;52.664;5.074;2023-03-01T03:47:48;20.98;;;10.77;;
44110;SDS011;29774;52.664;5.074;2023-03-01T03:50:15;30.65;;;11.45;;
44110;SDS011;29774;52.664;5.074;2023-03-01T03:52:41;20.65;;;11.27;;
44110;SDS011;29774;52.664;5.074;2023-03-01T03:55:08;22.95;;;11.63;;
44110;SDS011;29774;52.664;5.074;2023-03-01T03:57:39;29.60;;;10.57;;
44110;SDS011;29774;52.664;5.074;2023-03-01T04:00:07;40.00;;;11.00;;
44110;SDS011;29774;52.664;5.074;2023-03-01T04:02:39;18.83;;;9.82;;
44110;SDS011;29774;52.664;5.074;2023-03-01T04:05:06;17.15;;;10.25;;
44110;SDS011;29774;52.664;5.074;2023-03-01T04:07:33;16.25;;;8.85;;
44110;SDS011;29774;52.664;5.074;2023-03-01T04:10:03;21.48;;;10.82;;
44110;SDS011;29774;52.664;5.074;2023-03-01T04:12:31;23.98;;;11.50;;
44110;SDS011;29774;52.664;5.074;2023-03-01T04:14:58;19.08;;;12.23;;
44110;SDS011;29774;52.664;5.074;2023-03-01T04:17:25;23.92;;;12.38;;
44110;SDS011;29774;52.664;5.074;2023-03-01T04:19:50;30.50;;;12.52;;
44110;SDS011;29774;52.664;5.074;2023-03-01T04:22:16;26.67;;;11.85;;
44110;SDS011;29774;52.664;5.074;2023-03-01T04:24:43;31.80;;;11.63;;
44110;SDS011;29774;52.664;5.074;2023-03-01T04:27:09;37.92;;;12.55;;
44110;SDS011;29774;52.664;5.074;2023-03-01T04:29:36;54.28;;;14.32;;
44110;SDS011;29774;52.664;5.074;2023-03-01T04:32:01;47.00;;;21.60;;
44110;SDS011;29774;52.664;5.074;2023-03-01T04:34:28;24.05;;;13.10;;
44110;SDS011;29774;52.664;5.074;2023-03-01T04:36:54;28.92;;;13.35;;
44110;SDS011;29774;52.664;5.074;2023-03-01T04:39:20;15.98;;;12.55;;
44110;SDS011;29774;52.664;5.074;2023-03-01T04:41:46;32.95;;;11.82;;
44110;SDS011;29774;52.664;5.074;2023-03-01T04:44:12;30.35;;;12.45;;
44110;SDS011;29774;52.664;5.074;2023-03-01T04:46:38;42.90;;;12.45;;
44110;SDS011;29774;52.664;5.074;2023-03-01T04:49:03;54.08;;;12.20;;
44110;SDS011;29774;52.664;5.074;2023-03-01T04:51:30;44.38;;;11.77;;
44110;SDS011;29774;52.664;5.074;2023-03-01T04:53:57;33.03;;;11.27;;
44110;SDS011;29774;52.664;5.074;2023-03-01T04:56:23;25.02;;;9.75;;
44110;SDS011;29774;52.664;5.074;2023-03-01T04:58:49;21.30;;;9.75;;
44110;SDS011;29774;52.664;5.074;2023-03-01T05:01:16;24.85;;;10.90;;
44110;SDS011;29774;52.664;5.074;2023-03-01T05:03:44;22.85;;;11.70;;
44110;SDS011;29774;52.664;5.074;2023-03-01T05:06:11;18.27;;;11.32;;
44110;SDS011;29774;52.664;5.074;2023-03-01T05:08:40;25.92;;;11.60;;
44110;SDS011;29774;52.664;5.074;2023-03-01T05:11:08;27.42;;;12.30;;
44110;SDS011;29774;52.664;5.074;2023-03-01T05:13:35;35.65;;;12.23;;
44110;SDS011;29774;52.664;5.074;2023-03-01T05:16:02;41.67;;;11.40;;
44110;SDS011;29774;52.664;5.074;2023-03-01T05:18:30;26.35;;;12.25;;
44110;SDS011;29774;52.664;5.074;2023-03-01T05:23:33;33.45;;;12.18;;
44110;SDS011;29774;52.664;5.074;2023-03-01T05:26:00;19.48;;;11.27;;
44110;SDS011;29774;52.664;5.074;2023-03-01T05:28:27;26.92;;;11.32;;
44110;SDS011;29774;52.664;5.074;2023-03-01T05:30:53;23.67;;;11.02;;
44110;SDS011;29774;52.664;5.074;2023-03-01T05:33:19;22.73;;;10.13;;
44110;SDS011;29774;52.664;5.074;2023-03-01T05:35:46;23.88;;;10.90;;
44110;SDS011;29774;52.664;5.074;2023-03-01T05:38:13;17.40;;;11.20;;
44110;SDS011;29774;52.664;5.074;2023-03-01T05:40:43;23.08;;;11.82;;
44110;SDS011;29774;52.664;5.074;2023-03-01T05:43:11;14.27;;;10.00;;
44110;SDS011;29774;52.664;5.074;2023-03-01T05:45:37;14.85;;;10.40;;
44110;SDS011;29774;52.664;5.074;2023-03-01T05:48:04;11.85;;;9.52;;
44110;SDS011;29774;52.664;5.074;2023-03-01T05:50:32;13.68;;;10.15;;
44110;SDS011;29774;52.664;5.074;2023-03-01T05:53:01;13.13;;;10.55;;
44110;SDS011;29774;52.664;5.074;2023-03-01T05:55:29;11.27;;;9.20;;
44110;SDS011;29774;52.664;5.074;2023-03-01T05:57:57;14.43;;;10.30;;
44110;SDS011;29774;52.664;5.074;2023-03-01T06:00:26;13.60;;;9.75;;
44110;SDS011;29774;52.664;5.074;2023-03-01T06:02:53;11.43;;;9.02;;
44110;SDS011;29774;52.664;5.074;2023-03-01T06:05:20;12.38;;;9.25;;
44110;SDS011;29774;52.664;5.074;2023-03-01T06:07:46;15.07;;;10.98;;
44110;SDS011;29774;52.664;5.074;2023-03-01T06:10:12;14.02;;;10.18;;
44110;SDS011;29774;52.664;5.074;2023-03-01T06:12:39;16.98;;;10.77;;
44110;SDS011;29774;52.664;5.074;2023-03-01T06:15:06;15.13;;;9.70;;
44110;SDS011;29774;52.664;5.074;2023-03-01T06:17:34;11.20;;;9.13;;
44110;SDS011;29774;52.664;5.074;2023-03-01T06:20:03;12.70;;;9.13;;
44110;SDS011;29774;52.664;5.074;2023-03-01T06:22:35;13.70;;;9.57;;
44110;SDS011;29774;52.664;5.074;2023-03-01T06:25:00;11.90;;;9.45;;
44110;SDS011;29774;52.664;5.074;2023-03-01T06:27:26;14.38;;;9.60;;
44110;SDS011;29774;52.664;5.074;2023-03-01T06:29:51;13.73;;;9.38;;
44110;SDS011;29774;52.664;5.074;2023-03-01T06:32:17;15.70;;;10.80;;
44110;SDS011;29774;52.664;5.074;2023-03-01T06:34:44;13.88;;;10.32;;
44110;SDS011;29774;52.664;5.074;2023-03-01T06:37:10;10.27;;;7.90;;
44110;SDS011;29774;52.664;5.074;2023-03-01T06:39:36;21.13;;;7.28;;
44110;SDS011;29774;52.664;5.074;2023-03-01T06:42:01;15.07;;;7.32;;
44110;SDS011;29774;52.664;5.074;2023-03-01T06:44:27;12.77;;;7.45;;
44110;SDS011;29774;52.664;5.074;2023-03-01T06:46:53;21.38;;;8.05;;
44110;SDS011;29774;52.664;5.074;2023-03-01T06:49:19;18.75;;;7.97;;
44110;SDS011;29774;52.664;5.074;2023-03-01T06:51:45;17.45;;;7.55;;
44110;SDS011;29774;52.664;5.074;2023-03-01T06:54:11;11.88;;;7.35;;
44110;SDS011;29774;52.664;5.074;2023-03-01T06:56:37;12.68;;;7.40;;
44110;SDS011;29774;52.664;5.074;2023-03-01T06:59:03;9.98;;;7.45;;
44110;SDS011;29774;52.664;5.074;2023-03-01T07:01:29;15.15;;;7.63;;
44110;SDS011;29774;52.664;5.074;2023-03-01T07:03:55;12.02;;;7.82;;
44110;SDS011;29774;52.664;5.074;2023-03-01T07:06:21;10.32;;;7.57;;
44110;SDS011;29774;52.664;5.074;2023-03-01T07:08:46;10.10;;;8.27;;
44110;SDS011;29774;52.664;5.074;2023-03-01T07:11:12;10.50;;;8.10;;
44110;SDS011;29774;52.664;5.074;2023-03-01T07:13:38;10.57;;;7.90;;
44110;SDS011;29774;52.664;5.074;2023-03-01T07:16:04;9.30;;;7.93;;
44110;SDS011;29774;52.664;5.074;2023-03-01T07:18:30;10.27;;;8.25;;
44110;SDS011;29774;52.664;5.074;2023-03-01T07:20:55;8.95;;;7.32;;
44110;SDS011;29774;52.664;5.074;2023-03-01T07:23:21;9.57;;;7.57;;
44110;SDS011;29774;52.664;5.074;2023-03-01T07:25:53;10.32;;;8.02;;
44110;SDS011;29774;52.664;5.074;2023-03-01T07:28:19;11.82;;;8.18;;
44110;SDS011;29774;52.664;5.074;2023-03-01T07:30:47;9.32;;;7.50;;
44110;SDS011;29774;52.664;5.074;2023-03-01T07:33:12;9.60;;;7.97;;
44110;SDS011;29774;52.664;5.074;2023-03-01T07:35:38;9.35;;;8.13;;
44110;SDS011;29774;52.664;5.074;2023-03-01T07:38:03;10.43;;;8.10;;
44110;SDS011;29774;52.664;5.074;2023-03-01T07:40:29;10.88;;;8.05;;
44110;SDS011;29774;52.664;5.074;2023-03-01T07:42:55;13.13;;;8.85;;
44110;SDS011;29774;52.664;5.074;2023-03-01T07:45:21;9.80;;;8.73;;
44110;SDS011;29774;52.664;5.074;2023-03-01T07:47:47;11.50;;;8.80;;
44110;SDS011;29774;52.664;5.074;2023-03-01T07:50:13;13.07;;;9.82;;
44110;SDS011;29774;52.664;5.074;2023-03-01T07:52:38;11.20;;;9.65;;
44110;SDS011;29774;52.664;5.074;2023-03-01T07:55:04;14.25;;;10.43;;
44110;SDS011;29774;52.664;5.074;2023-03-01T07:57:30;11.65;;;9.35;;
44110;SDS011;29774;52.664;5.074;2023-03-01T07:59:56;13.55;;;10.43;;
44110;SDS011;29774;52.664;5.074;2023-03-01T08:02:22;11.18;;;10.00;;
44110;SDS011;29774;52.664;5.074;2023-03-01T08:04:47;14.23;;;11.05;;
44110;SDS011;29774;52.664;5.074;2023-03-01T08:07:13;13.05;;;10.35;;
44110;SDS011;29774;52.664;5.074;2023-03-01T08:09:39;13.80;;;10.50;;
44110;SDS011;29774;52.664;5.074;2023-03-01T08:12:05;13.55;;;10.63;;
44110;SDS011;29774;52.664;5.074;2023-03-01T08:14:34;13.65;;;10.20;;
44110;SDS011;29774;52.664;5.074;2023-03-01T08:16:59;14.15;;;11.55;;
44110;SDS011;29774;52.664;5.074;2023-03-01T08:19:27;16.02;;;11.32;;
44110;SDS011;29774;52.664;5.074;2023-03-01T08:21:53;15.80;;;11.63;;
44110;SDS011;29774;52.664;5.074;2023-03-01T08:24:19;14.57;;;11.50;;
44110;SDS011;29774;52.664;5.074;2023-03-01T08:26:45;16.65;;;12.05;;
44110;SDS011;29774;52.664;5.074;2023-03-01T08:29:10;17.40;;;11.40;;
44110;SDS011;29774;52.664;5.074;2023-03-01T08:31:37;15.27;;;11.75;;
44110;SDS011;29774;52.664;5.074;2023-03-01T08:34:05;22.88;;;11.23;;
44110;SDS011;29774;52.664;5.074;2023-03-01T08:36:34;29.13;;;11.38;;
44110;SDS011;29774;52.664;5.074;2023-03-01T08:39:02;34.83;;;12.68;;
44110;SDS011;29774;52.664;5.074;2023-03-01T08:41:28;33.58;;;11.20;;
44110;SDS011;29774;52.664;5.074;2023-03-01T08:43:53;38.17;;;11.32;;
44110;SDS011;29774;52.664;5.074;2023-03-01T08:46:24;23.58;;;10.23;;
44110;SDS011;29774;52.664;5.074;2023-03-01T08:48:50;35.45;;;11.10;;
44110;SDS011;29774;52.664;5.074;2023-03-01T08:51:16;21.60;;;10.75;;
44110;SDS011;29774;52.664;5.074;2023-03-01T08:53:43;21.42;;;10.50;;
44110;SDS011;29774;52.664;5.074;2023-03-01T08:56:09;22.52;;;10.82;;
44110;SDS011;29774;52.664;5.074;2023-03-01T08:58:36;19.10;;;10.07;;
44110;SDS011;29774;52.664;5.074;2023-03-01T09:01:08;20.95;;;11.02;;
44110;SDS011;29774;52.664;5.074;2023-03-01T09:03:35;29.15;;;11.50;;
44110;SDS011;29774;52.664;5.074;2023-03-01T09:06:01;16.58;;;11.07;;
44110;SDS011;29774;52.664;5.074;2023-03-01T09:08:28;20.02;;;11.85;;
44110;SDS011;29774;52.664;5.074;2023-03-01T09:10:54;20.98;;;11.23;;
44110;SDS011;29774;52.664;5.074;2023-03-01T09:13:20;21.63;;;10.73;;
44110;SDS011;29774;52.664;5.074;2023-03-01T09:15:45;18.48;;;10.38;;
44110;SDS011;29774;52.664;5.074;2023-03-01T09:18:11;16.05;;;10.60;;
44110;SDS011;29774;52.664;5.074;2023-03-01T09:20:37;15.93;;;10.10;;
44110;SDS011;29774;52.664;5.074;2023-03-01T09:23:02;13.32;;;9.93;;
44110;SDS011;29774;52.664;5.074;2023-03-01T09:25:28;12.68;;;9.82;;
44110;SDS011;29774;52.664;5.074;2023-03-01T09:27:54;12.98;;;9.27;;
44110;SDS011;29774;52.664;5.074;2023-03-01T09:30:20;12.35;;;9.98;;
44110;SDS011;29774;52.664;5.074;2023-03-01T09:32:46;14.45;;;11.13;;
44110;SDS011;29774;52.664;5.074;2023-03-01T09:35:12;14.90;;;10.52;;
44110;SDS011;29774;52.664;5.074;2023-03-01T09:37:38;13.80;;;10.02;;
44110;SDS011;29774;52.664;5.074;2023-03-01T09:40:29;15.10;;;9.85;;
44110;SDS011;29774;52.664;5.074;2023-03-01T09:43:02;12.50;;;10.13;;
44110;SDS011;29774;52.664;5.074;2023-03-01T09:45:53;13.48;;;10.00;;
44110;SDS011;29774;52.664;5.074;2023-03-01T09:48:24;15.57;;;11.15;;
44110;SDS011;29774;52.664;5.074;2023-03-01T09:50:54;13.63;;;10.82;;
44110;SDS011;29774;52.664;5.074;2023-03-01T09:53:22;14.80;;;11.05;;
44110;SDS011;29774;52.664;5.074;2023-03-01T09:56:00;17.75;;;11.18;;
44110;SDS011;29774;52.664;5.074;2023-03-01T10:01:10;16.52;;;10.82;;
44110;SDS011;29774;52.664;5.074;2023-03-01T10:03:43;13.55;;;10.43;;
44110;SDS011;29774;52.664;5.074;2023-03-01T10:06:29;12.40;;;10.45;;
44110;SDS011;29774;52.664;5.074;2023-03-01T10:09:00;15.07;;;10.43;;
44110;SDS011;29774;52.664;5.074;2023-03-01T10:11:33;14.70;;;10.55;;
44110;SDS011;29774;52.664;5.074;2023-03-01T10:17:20;12.18;;;10.43;;
44110;SDS011;29774;52.664;5.074;2023-03-01T10:19:53;13.73;;;10.60;;
44110;SDS011;29774;52.664;5.074;2023-03-01T10:22:24;14.38;;;11.55;;
44110;SDS011;29774;52.664;5.074;2023-03-01T10:24:54;13.60;;;11.15;;
44110;SDS011;29774;52.664;5.074;2023-03-01T10:27:23;14.02;;;10.85;;
44110;SDS011;29774;52.664;5.074;2023-03-01T10:32:44;15.63;;;11.25;;
44110;SDS011;29774;52.664;5.074;2023-03-01T10:38:04;12.57;;;10.23;;
44110;SDS011;29774;52.664;5.074;2023-03-01T10:40:31;15.52;;;10.85;;
44110;SDS011;29774;52.664;5.074;2023-03-01T10:42:59;13.40;;;9.57;;
44110;SDS011;29774;52.664;5.074;2023-03-01T10:50:44;12.98;;;9.60;;
44110;SDS011;29774;52.664;5.074;2023-03-01T10:53:22;14.23;;;11.10;;
44110;SDS011;29774;52.664;5.074;2023-03-01T10:56:07;15.07;;;10.27;;
44110;SDS011;29774;52.664;5.074;2023-03-01T10:58:34;12.43;;;10.05;;
44110;SDS011;29774;52.664;5.074;2023-03-01T11:01:05;13.13;;;10.73;;
44110;SDS011;29774;52.664;5.074;2023-03-01T11:03:40;14.35;;;10.60;;
44110;SDS011;29774;52.664;5.074;2023-03-01T11:08:44;15.70;;;11.85;;
44110;SDS011;29774;52.664;5.074;2023-03-01T11:13:49;17.52;;;11.00;;
44110;SDS011;29774;52.664;5.074;2023-03-01T11:16:16;13.27;;;11.32;;
44110;SDS011;29774;52.664;5.074;2023-03-01T11:18:57;15.63;;;11.20;;
44110;SDS011;29774;52.664;5.074;2023-03-01T11:21:24;13.57;;;10.93;;
44110;SDS011;29774;52.664;5.074;2023-03-01T11:23:52;14.07;;;10.57;;
44110;SDS011;29774;52.664;5.074;2023-03-01T11:26:18;14.73;;;10.50;;
44110;SDS011;29774;52.664;5.074;2023-03-01T11:28:44;12.60;;;8.85;;
44110;SDS011;29774;52.664;5.074;2023-03-01T11:31:15;10.25;;;9.13;;
44110;SDS011;29774;52.664;5.074;2023-03-01T11:36:20;7.97;;;6.30;;
44110;SDS011;29774;52.664;5.074;2023-03-01T11:39:32;8.75;;;5.82;;
44110;SDS011;29774;52.664;5.074;2023-03-01T11:45:12;10.27;;;6.57;;
44110;SDS011;29774;52.664;5.074;2023-03-01T11:50:20;9.43;;;7.20;;
44110;SDS011;29774;52.664;5.074;2023-03-01T11:53:09;8.02;;;6.60;;
44110;SDS011;29774;52.664;5.074;2023-03-01T11:55:58;10.77;;;6.95;;
44110;SDS011;29774;52.664;5.074;2023-03-01T11:58:56;9.05;;;6.97;;
44110;SDS011;29774;52.664;5.074;2023-03-01T12:04:37;11.27;;;6.78;;
44110;SDS011;29774;52.664;5.074;2023-03-01T12:19:01;10.18;;;6.70;;
44110;SDS011;29774;52.664;5.074;2023-03-01T12:24:15;10.52;;;7.93;;
44110;SDS011;29774;52.664;5.074;2023-03-01T12:35:03;10.75;;;7.55;;
44110;SDS011;29774;52.664;5.074;2023-03-01T12:40:20;12.43;;;9.65;;
44110;SDS011;29774;52.664;5.074;2023-03-01T12:48:08;11.57;;;8.00;;
44110;SDS011;29774;52.664;5.074;2023-03-01T12:50:54;10.77;;;8.52;;
44110;SDS011;29774;52.664;5.074;2023-03-01T12:53:28;9.95;;;7.65;;
44110;SDS011;29774;52.664;5.074;2023-03-01T12:56:08;13.13;;;8.93;;
44110;SDS011;29774;52.664;5.074;2023-03-01T13:01:04;14.48;;;10.20;;
44110;SDS011;29774;52.664;5.074;2023-03-01T13:03:38;12.45;;;9.38;;
44110;SDS011;29774;52.664;5.074;2023-03-01T13:06:11;14.55;;;9.00;;
44110;SDS011;29774;52.664;5.074;2023-03-01T13:11:25;11.00;;;8.85;;
44110;SDS011;29774;52.664;5.074;2023-03-01T13:14:35;11.75;;;9.57;;
44110;SDS011;29774;52.664;5.074;2023-03-01T13:16:57;15.55;;;10.27;;
44110;SDS011;29774;52.664;5.074;2023-03-01T13:19:23;16.58;;;10.07;;
44110;SDS011;29774;52.664;5.074;2023-03-01T13:21:51;15.48;;;10.60;;
44110;SDS011;29774;52.664;5.074;2023-03-01T13:24:29;15.20;;;10.93;;
44110;SDS011;29774;52.664;5.074;2023-03-01T13:29:48;12.57;;;9.48;;
44110;SDS011;29774;52.664;5.074;2023-03-01T13:32:22;14.60;;;9.68;;
44110;SDS011;29774;52.664;5.074;2023-03-01T13:34:59;15.00;;;11.48;;
44110;SDS011;29774;52.664;5.074;2023-03-01T13:37:40;15.60;;;11.23;;
44110;SDS011;29774;52.664;5.074;2023-03-01T13:42:43;14.20;;;10.50;;
44110;SDS011;29774;52.664;5.074;2023-03-01T13:48:08;10.13;;;6.75;;
44110;SDS011;29774;52.664;5.074;2023-03-01T13:50:46;15.75;;;11.63;;
44110;SDS011;29774;52.664;5.074;2023-03-01T13:53:17;15.82;;;11.07;;
44110;SDS011;29774;52.664;5.074;2023-03-01T13:55:45;13.95;;;10.10;;
44110;SDS011;29774;52.664;5.074;2023-03-01T13:58:24;11.50;;;9.55;;
44110;SDS011;29774;52.664;5.074;2023-03-01T14:00:58;15.15;;;10.65;;
44110;SDS011;29774;52.664;5.074;2023-03-01T14:03:26;13.15;;;10.73;;
44110;SDS011;29774;52.664;5.074;2023-03-01T14:05:59;15.20;;;11.27;;
44110;SDS011;29774;52.664;5.074;2023-03-01T14:08:33;15.32;;;11.27;;
44110;SDS011;29774;52.664;5.074;2023-03-01T14:11:50;16.50;;;11.27;;
44110;SDS011;29774;52.664;5.074;2023-03-01T14:19:25;11.82;;;8.95;;
44110;SDS011;29774;52.664;5.074;2023-03-01T14:24:51;14.80;;;10.93;;
44110;SDS011;29774;52.664;5.074;2023-03-01T14:27:35;15.63;;;10.68;;
44110;SDS011;29774;52.664;5.074;2023-03-01T14:30:12;13.57;;;9.88;;
44110;SDS011;29774;52.664;5.074;2023-03-01T14:32:51;13.07;;;9.70;;
44110;SDS011;29774;52.664;5.074;2023-03-01T14:35:22;14.13;;;10.43;;
44110;SDS011;29774;52.664;5.074;2023-03-01T14:38:19;14.15;;;9.65;;
44110;SDS011;29774;52.664;5.074;2023-03-01T14:40:46;14.85;;;10.52;;
44110;SDS011;29774;52.664;5.074;2023-03-01T14:43:19;13.68;;;9.95;;
44110;SDS011;29774;52.664;5.074;2023-03-01T14:45:49;14.57;;;9.85;;
44110;SDS011;29774;52.664;5.074;2023-03-01T14:48:16;13.35;;;9.43;;
44110;SDS011;29774;52.664;5.074;2023-03-01T14:50:43;14.13;;;10.43;;
44110;SDS011;29774;52.664;5.074;2023-03-01T14:53:23;11.90;;;9.25;;
44110;SDS011;29774;52.664;5.074;2023-03-01T14:55:53;13.68;;;10.25;;
44110;SDS011;29774;52.664;5.074;2023-03-01T14:58:22;14.10;;;10.52;;
44110;SDS011;29774;52.664;5.074;2023-03-01T15:00:56;12.85;;;9.45;;
44110;SDS011;29774;52.664;5.074;2023-03-01T15:03:25;15.95;;;11.13;;
44110;SDS011;29774;52.664;5.074;2023-03-01T15:06:00;8.57;;;6.75;;
44110;SDS011;29774;52.664;5.074;2023-03-01T15:08:27;12.02;;;9.02;;
44110;SDS011;29774;52.664;5.074;2023-03-01T15:11:21;12.13;;;9.75;;
44110;SDS011;29774;52.664;5.074;2023-03-01T15:13:48;12.13;;;9.63;;
44110;SDS011;29774;52.664;5.074;2023-03-01T15:16:15;17.58;;;10.90;;
44110;SDS011;29774;52.664;5.074;2023-03-01T15:18:53;14.27;;;10.40;;
44110;SDS011;29774;52.664;5.074;2023-03-01T15:21:21;15.18;;;10.32;;
44110;SDS011;29774;52.664;5.074;2023-03-01T15:23:55;13.93;;;9.05;;
44110;SDS011;29774;52.664;5.074;2023-03-01T15:26:42;14.07;;;10.13;;
44110;SDS011;29774;52.664;5.074;2023-03-01T15:29:15;14.93;;;10.73;;
44110;SDS011;29774;52.664;5.074;2023-03-01T15:31:43;13.77;;;10.60;;
44110;SDS011;29774;52.664;5.074;2023-03-01T15:34:23;14.60;;;10.45;;
44110;SDS011;29774;52.664;5.074;2023-03-01T15:36:52;13.55;;;9.45;;
44110;SDS011;29774;52.664;5.074;2023-03-01T15:42:23;12.15;;;8.55;;
44110;SDS011;29774;52.664;5.074;2023-03-01T15:45:09;15.63;;;11.15;;
44110;SDS011;29774;52.664;5.074;2023-03-01T15:47:36;12.30;;;9.02;;
44110;SDS011;29774;52.664;5.074;2023-03-01T15:50:05;14.52;;;9.20;;
44110;SDS011;29774;52.664;5.074;2023-03-01T15:52:41;16.60;;;10.25;;
44110;SDS011;29774;52.664;5.074;2023-03-01T15:57:44;13.45;;;10.20;;
44110;SDS011;29774;52.664;5.074;2023-03-01T16:00:10;11.75;;;8.82;;
44110;SDS011;29774;52.664;5.074;2023-03-01T16:02:38;13.48;;;8.88;;
44110;SDS011;29774;52.664;5.074;2023-03-01T16:05:05;12.55;;;8.75;;
44110;SDS011;29774;52.664;5.074;2023-03-01T16:07:39;16.77;;;10.05;;
44110;SDS011;29774;52.664;5.074;2023-03-01T16:10:05;14.27;;;10.15;;
44110;SDS011;29774;52.664;5.074;2023-03-01T16:12:31;12.43;;;9.75;;
44110;SDS011;29774;52.664;5.074;2023-03-01T16:14:56;13.00;;;9.70;;
44110;SDS011;29774;52.664;5.074;2023-03-01T16:17:22;13.50;;;8.93;;
44110;SDS011;29774;52.664;5.074;2023-03-01T16:19:48;12.25;;;9.45;;
44110;SDS011;29774;52.664;5.074;2023-03-01T16:22:13;14.52;;;9.30;;
44110;SDS011;29774;52.664;5.074;2023-03-01T16:24:39;12.75;;;10.00;;
44110;SDS011;29774;52.664;5.074;2023-03-01T16:27:06;14.13;;;10.70;;